Time;durP1;ratioP1;P1;durP2;ratioP2;P2;SDS_P1;SDS_P2;PMS_P1;PMS_P2;Temp;Humidity;BMP_temperature;BMP_pressure;BME280_temperature;BME280_humidity;BME280_pressure;Samples;Min_cycle;Max_cycle;Signal;HPM_P1;HPM_P2
2022/08/23 00:00:33;;;;;;;;;;;22.80;65.20;;;;;;6127337;23;1192;-67
2022/08/23 00:02:58;;;;;;;;;;;22.70;65.30;;;;;;6127349;23;789;-67
2022/08/23 00:05:24;;;;;;;;;;;22.80;65.30;;;;;;6101316;23;1877;-67
2022/08/23 00:07:49;;;;;;;;;;;22.80;65.40;;;;;;6127467;23;781;-67
2022/08/23 00:10:15;;;;;;;;;;;22.80;66.20;;;;;;6101404;23;1214;-67
2022/08/23 00:12:40;;;;;;;;;;;22.80;65.40;;;;;;6077323;23;1355;-67
2022/08/23 00:15:07;;;;;;;;;;;22.80;65.50;;;;;;6127420;23;824;-67
2022/08/23 00:17:32;;;;;;;;;;;22.80;65.50;;;;;;6101185;23;804;-67
2022/08/23 00:19:58;;;;;;;;;;;22.80;65.60;;;;;;6127109;23;1006;-66
2022/08/23 00:22:23;;;;;;;;;;;22.80;65.60;;;;;;6126966;23;1179;-66
2022/08/23 00:24:49;;;;;;;;;;;22.80;65.60;;;;;;6101382;23;757;-67
2022/08/23 00:27:15;;;;;;;;;;;22.80;65.70;;;;;;6126852;23;1944;-67
2022/08/23 00:29:41;;;;;;;;;;;22.80;65.70;;;;;;6101510;23;1078;-67
2022/08/23 00:32:07;;;;;;;;;;;22.80;65.70;;;;;;6100831;23;1215;-67
2022/08/23 00:34:33;;;;;;;;;;;22.80;65.70;;;;;;6126642;23;1050;-67
2022/08/23 00:36:59;;;;;;;;;;;22.70;65.80;;;;;;6100949;23;844;-67
2022/08/23 00:39:24;;;;;;;;;;;22.80;65.80;;;;;;6101323;23;785;-67
2022/08/23 00:41:50;;;;;;;;;;;22.80;65.90;;;;;;6126885;23;1290;-67
2022/08/23 00:47:38;;;;;;;;;;;22.80;65.90;;;;;;6104508;23;1889;-67
2022/08/23 00:49:51;;;;;;;;;;;22.80;66.00;;;;;;6105248;23;1150;-67
2022/08/23 00:52:32;;;;;;;;;;;22.80;66.00;;;;;;6100871;23;1163;-67
2022/08/23 00:54:57;;;;;;;;;;;22.80;66.00;;;;;;6101096;23;821;-67
2022/08/23 00:57:23;;;;;;;;;;;22.80;66.00;;;;;;6100629;23;876;-67
2022/08/23 00:59:48;;;;;;;;;;;22.70;66.00;;;;;;6100847;23;932;-67
2022/08/23 01:02:14;;;;;;;;;;;22.80;66.10;;;;;;6126682;23;1168;-66
2022/08/23 01:04:43;;;;;;;;;;;22.80;66.10;;;;;;6076774;23;697;-67
2022/08/23 01:07:21;;;;;;;;;;;22.80;66.20;;;;;;6126756;23;1936;-67
2022/08/23 01:09:46;;;;;;;;;;;22.80;66.20;;;;;;6127112;23;821;-66
2022/08/23 01:12:15;;;;;;;;;;;22.80;66.20;;;;;;6100307;23;1272;-66
2022/08/23 01:14:42;;;;;;;;;;;22.80;66.20;;;;;;6101436;23;860;-67
2022/08/23 01:17:11;;;;;;;;;;;22.80;66.30;;;;;;6076697;23;1105;-66
2022/08/23 01:19:40;;;;;;;;;;;22.80;66.30;;;;;;6126867;23;861;-66
2022/08/23 01:22:13;;;;;;;;;;;22.80;66.30;;;;;;6100735;23;1296;-67
2022/08/23 01:24:39;;;;;;;;;;;22.80;66.30;;;;;;6100683;23;900;-66
2022/08/23 01:27:04;;;;;;;;;;;22.80;66.30;;;;;;6100141;23;1905;-66
2022/08/23 01:29:30;;;;;;;;;;;22.80;66.40;;;;;;6100725;23;1011;-66
2022/08/23 01:31:55;;;;;;;;;;;22.70;66.30;;;;;;6126270;23;1200;-67
2022/08/23 01:34:24;;;;;;;;;;;22.80;66.40;;;;;;6101092;23;827;-67
2022/08/23 01:36:49;;;;;;;;;;;22.80;66.40;;;;;;6100395;23;847;-66
2022/08/23 01:39:15;;;;;;;;;;;22.80;66.40;;;;;;6126399;23;785;-66
2022/08/23 01:41:40;;;;;;;;;;;22.80;66.40;;;;;;6126358;23;1181;-66
2022/08/23 01:44:06;;;;;;;;;;;22.70;66.40;;;;;;6100511;23;935;-67
2022/08/23 01:46:31;;;;;;;;;;;22.80;66.50;;;;;;6126074;23;1901;-66
2022/08/23 01:48:57;;;;;;;;;;;22.80;66.50;;;;;;6126422;23;884;-67
2022/08/23 01:51:23;;;;;;;;;;;22.80;66.50;;;;;;6126191;23;1207;-66
2022/08/23 01:53:49;;;;;;;;;;;22.70;66.40;;;;;;6100395;23;864;-66
2022/08/23 01:56:19;;;;;;;;;;;22.80;66.50;;;;;;6100620;23;864;-66
2022/08/23 01:58:44;;;;;;;;;;;22.80;66.50;;;;;;6077261;23;1270;-66
2022/08/23 02:01:10;;;;;;;;;;;22.70;66.50;;;;;;6126032;23;1198;-66
2022/08/23 02:03:36;;;;;;;;;;;22.80;66.60;;;;;;6126535;23;903;-66
2022/08/23 02:06:02;;;;;;;;;;;22.80;66.50;;;;;;6100437;23;1940;-66
2022/08/23 02:09:13;;;;;;;;;;;22.70;66.50;;;;;;6100336;23;920;-66
2022/08/23 02:11:14;;;;;;;;;;;22.80;66.60;;;;;;6110654;23;1492;-66
2022/08/23 02:13:40;;;;;;;;;;;22.80;66.60;;;;;;6126446;23;951;-66
2022/08/23 02:16:05;;;;;;;;;;;22.80;66.60;;;;;;6126069;23;1018;-66
2022/08/23 02:18:31;;;;;;;;;;;22.70;66.50;;;;;;6100549;23;726;-66
2022/08/23 02:20:56;;;;;;;;;;;22.80;66.60;;;;;;6125874;23;1260;-66
2022/08/23 02:23:22;;;;;;;;;;;22.80;66.70;;;;;;6126246;23;888;-66
2022/08/23 02:25:49;;;;;;;;;;;22.80;66.70;;;;;;6126088;23;1905;-66
2022/08/23 02:28:14;;;;;;;;;;;22.80;66.60;;;;;;6100503;23;841;-67
2022/08/23 02:30:39;;;;;;;;;;;22.80;66.60;;;;;;6125484;23;1214;-66
2022/08/23 02:33:05;;;;;;;;;;;22.70;66.60;;;;;;6126049;23;872;-66
2022/08/23 02:35:32;;;;;;;;;;;22.80;66.70;;;;;;6099623;23;865;-66
2022/08/23 02:38:01;;;;;;;;;;;22.80;66.70;;;;;;6100735;23;863;-66
2022/08/23 02:40:27;;;;;;;;;;;22.80;66.70;;;;;;6076234;23;1255;-66
2022/08/23 02:42:52;;;;;;;;;;;22.70;66.70;;;;;;6100103;23;1177;-66
2022/08/23 02:45:18;;;;;;;;;;;22.70;66.70;;;;;;6126045;23;864;-66
2022/08/23 02:47:44;;;;;;;;;;;22.80;66.70;;;;;;6100093;23;1889;-67
2022/08/23 02:50:09;;;;;;;;;;;22.80;67.50;;;;;;6100133;23;857;-66
2022/08/23 02:52:35;;;;;;;;;;;22.80;66.70;;;;;;6099852;23;1369;-67
2022/08/23 02:55:01;;;;;;;;;;;22.70;66.70;;;;;;6100307;23;838;-67
2022/08/23 02:57:26;;;;;;;;;;;22.80;66.70;;;;;;6125379;23;853;-67
2022/08/23 02:59:52;;;;;;;;;;;22.70;66.70;;;;;;6100143;23;908;-66
2022/08/23 03:02:17;;;;;;;;;;;22.80;66.70;;;;;;6100000;23;1216;-67
2022/08/23 03:04:43;;;;;;;;;;;22.80;66.70;;;;;;6125670;23;1018;-67
2022/08/23 03:07:08;;;;;;;;;;;22.70;66.70;;;;;;6099595;23;1897;-66
2022/08/23 03:09:34;;;;;;;;;;;22.80;66.70;;;;;;6126090;23;1011;-66
2022/08/23 03:11:59;;;;;;;;;;;22.80;66.70;;;;;;6125482;23;1215;-67
2022/08/23 03:14:26;;;;;;;;;;;22.80;66.70;;;;;;6125870;23;833;-66
2022/08/23 03:16:52;;;;;;;;;;;22.80;66.70;;;;;;6125497;23;840;-66
2022/08/23 03:19:17;;;;;;;;;;;22.80;66.70;;;;;;6125630;23;916;-66
2022/08/23 03:21:43;;;;;;;;;;;22.80;66.70;;;;;;6125569;23;1282;-66
2022/08/23 03:24:08;;;;;;;;;;;22.80;66.70;;;;;;6125844;23;1015;-67
2022/08/23 03:26:34;;;;;;;;;;;22.70;66.70;;;;;;6125427;23;1905;-66
2022/08/23 03:28:59;;;;;;;;;;;22.70;66.70;;;;;;6125849;23;797;-66
2022/08/23 03:31:24;;;;;;;;;;;22.70;66.70;;;;;;6099700;23;1369;-66
2022/08/23 03:33:50;;;;;;;;;;;22.70;66.70;;;;;;6125907;23;735;-67
2022/08/23 03:36:15;;;;;;;;;;;22.70;67.40;;;;;;6125324;23;904;-66
2022/08/23 03:38:41;;;;;;;;;;;22.80;66.80;;;;;;6075883;23;1057;-66
2022/08/23 03:41:06;;;;;;;;;;;22.70;66.80;;;;;;6099884;23;1204;-66
2022/08/23 03:43:32;;;;;;;;;;;22.80;66.80;;;;;;6099763;23;1573;-66
2022/08/23 03:45:57;;;;;;;;;;;22.70;66.80;;;;;;6125451;23;1881;-67
2022/08/23 03:48:23;;;;;;;;;;;22.80;66.80;;;;;;6125511;23;804;-67
2022/08/23 03:50:49;;;;;;;;;;;22.70;66.80;;;;;;6125547;23;1301;-66
2022/08/23 03:53:15;;;;;;;;;;;22.80;66.90;;;;;;6099982;23;1054;-67
2022/08/23 03:55:40;;;;;;;;;;;22.80;66.90;;;;;;6125404;23;801;-66
2022/08/23 03:58:06;;;;;;;;;;;22.80;66.90;;;;;;6099816;23;809;-66
2022/08/23 04:00:31;;;;;;;;;;;22.70;66.90;;;;;;6125510;23;1283;-66
2022/08/23 04:02:57;;;;;;;;;;;22.70;67.00;;;;;;6125453;23;872;-67
2022/08/23 04:05:22;;;;;;;;;;;22.70;67.00;;;;;;6125413;23;1014;-67
2022/08/23 04:07:47;;;;;;;;;;;22.70;66.90;;;;;;6126226;23;1893;-66
2022/08/23 04:10:14;;;;;;;;;;;22.70;67.00;;;;;;6127300;23;1210;-66
2022/08/23 04:12:40;;;;;;;;;;;22.80;67.00;;;;;;6126936;23;3425;-71
2022/08/23 04:15:06;;;;;;;;;;;22.80;67.00;;;;;;6101142;23;1224;-68
2022/08/23 04:17:31;;;;;;;;;;;22.80;67.00;;;;;;6099955;23;1212;-70
2022/08/23 04:19:56;;;;;;;;;;;22.70;67.00;;;;;;6100956;23;987;-70
2022/08/23 04:22:23;;;;;;;;;;;22.80;67.00;;;;;;6126894;23;1275;-70
2022/08/23 04:24:49;;;;;;;;;;;22.80;67.10;;;;;;6101517;23;831;-70
2022/08/23 04:27:14;;;;;;;;;;;22.70;67.00;;;;;;6100214;23;1960;-71
2022/08/23 04:29:39;;;;;;;;;;;22.70;67.00;;;;;;6127226;23;896;-70
2022/08/23 04:32:05;;;;;;;;;;;22.70;67.00;;;;;;6125963;23;1289;-71
2022/08/23 04:34:32;;;;;;;;;;;22.70;67.00;;;;;;6076758;23;1336;-70
2022/08/23 04:36:58;;;;;;;;;;;22.70;67.80;;;;;;6126019;23;843;-70
2022/08/23 04:39:23;;;;;;;;;;;22.70;67.10;;;;;;6126885;23;805;-70
2022/08/23 04:44:34;;;;;;;;;;;22.70;67.10;;;;;;6126658;23;647;-70
2022/08/23 04:47:00;;;;;;;;;;;22.70;67.90;;;;;;6126126;23;1920;-70
2022/08/23 04:49:25;;;;;;;;;;;22.70;67.10;;;;;;6126615;23;1006;-70
2022/08/23 04:51:51;;;;;;;;;;;22.80;67.20;;;;;;6126327;23;1248;-71
2022/08/23 04:54:16;;;;;;;;;;;22.70;67.20;;;;;;6126567;23;680;-71
2022/08/23 04:56:42;;;;;;;;;;;22.70;67.20;;;;;;6125865;23;793;-70
2022/08/23 04:59:07;;;;;;;;;;;22.70;67.20;;;;;;6076619;23;1027;-70
2022/08/23 05:01:33;;;;;;;;;;;22.80;67.20;;;;;;6126496;23;1283;-68
2022/08/23 05:03:59;;;;;;;;;;;22.80;67.40;;;;;;6100179;23;1211;-68
2022/08/23 05:06:25;;;;;;;;;;;22.70;67.10;;;;;;6100230;23;1943;-68
2022/08/23 05:08:51;;;;;;;;;;;22.70;67.10;;;;;;6126647;23;924;-68
2022/08/23 05:11:17;;;;;;;;;;;22.70;67.00;;;;;;6075948;23;1204;-68
2022/08/23 05:13:43;;;;;;;;;;;22.70;67.40;;;;;;6125734;23;837;-67
2022/08/23 05:16:09;;;;;;;;;;;22.70;67.20;;;;;;6099201;23;860;-68
2022/08/23 05:18:34;;;;;;;;;;;22.70;67.20;;;;;;6119002;23;785;-67
2022/08/23 05:20:59;;;;;;;;;;;22.70;67.20;;;;;;6120438;23;1243;-67
2022/08/23 05:23:25;;;;;;;;;;;22.80;67.10;;;;;;6124976;23;813;-68
2022/08/23 05:25:51;;;;;;;;;;;22.70;67.10;;;;;;6098996;23;1931;-67
2022/08/23 05:28:17;;;;;;;;;;;22.70;67.10;;;;;;6098903;23;809;-67
2022/08/23 05:30:42;;;;;;;;;;;22.70;67.20;;;;;;6124934;23;789;-67
2022/08/23 05:33:08;;;;;;;;;;;22.70;67.20;;;;;;6124605;23;1290;-67
2022/08/23 05:35:33;;;;;;;;;;;22.70;67.10;;;;;;6125344;23;849;-67
2022/08/23 05:37:59;;;;;;;;;;;22.70;67.10;;;;;;6099408;23;872;-68
2022/08/23 05:40:25;;;;;;;;;;;22.70;67.00;;;;;;6126685;23;761;-67
2022/08/23 05:42:50;;;;;;;;;;;22.70;67.00;;;;;;6124284;23;1259;-67
2022/08/23 05:45:16;;;;;;;;;;;22.80;67.00;;;;;;6098951;23;1011;-68
2022/08/23 05:47:41;;;;;;;;;;;22.70;66.90;;;;;;6099554;23;1889;-68
2022/08/23 05:50:07;;;;;;;;;;;22.70;67.00;;;;;;6100423;23;1297;-68
2022/08/23 05:52:33;;;;;;;;;;;22.70;67.00;;;;;;6100102;23;1334;-68
2022/08/23 05:54:58;;;;;;;;;;;22.70;66.90;;;;;;6125739;23;805;-68
2022/08/23 05:57:23;;;;;;;;;;;22.70;67.00;;;;;;6099622;23;749;-67
2022/08/23 05:59:49;;;;;;;;;;;22.70;67.00;;;;;;6126154;23;789;-68
2022/08/23 06:02:14;;;;;;;;;;;22.70;67.00;;;;;;6125834;23;1297;-68
2022/08/23 06:04:40;;;;;;;;;;;22.70;67.80;;;;;;6126217;23;1047;-66
2022/08/23 06:07:05;;;;;;;;;;;22.70;67.00;;;;;;6098870;23;1941;-68
2022/08/23 06:09:31;;;;;;;;;;;22.70;67.10;;;;;;6099951;23;784;-67
2022/08/23 06:11:58;;;;;;;;;;;22.70;67.10;;;;;;6125668;23;1188;-67
2022/08/23 06:14:23;;;;;;;;;;;22.70;67.20;;;;;;6125643;23;687;-68
2022/08/23 06:16:49;;;;;;;;;;;22.70;67.10;;;;;;6125141;23;721;-67
2022/08/23 06:19:14;;;;;;;;;;;22.70;67.20;;;;;;6126058;23;1010;-67
2022/08/23 06:21:40;;;;;;;;;;;22.70;67.10;;;;;;6125944;23;1208;-68
2022/08/23 06:24:06;;;;;;;;;;;22.70;67.20;;;;;;6125937;23;986;-67
2022/08/23 06:26:35;;;;;;;;;;;22.70;67.20;;;;;;6125203;23;1897;-67
2022/08/23 06:29:01;;;;;;;;;;;22.70;67.20;;;;;;6125571;23;856;-67
2022/08/23 06:31:46;;;;;;;;;;;22.70;67.20;;;;;;6099506;23;1208;-67
2022/08/23 06:34:13;;;;;;;;;;;22.70;67.30;;;;;;6103936;23;884;-68
2022/08/23 06:36:38;;;;;;;;;;;22.70;67.20;;;;;;6099077;23;812;-68
2022/08/23 06:39:04;;;;;;;;;;;22.70;67.20;;;;;;6125310;23;828;-67
2022/08/23 06:41:30;;;;;;;;;;;22.70;67.00;;;;;;6099832;23;1197;-68
2022/08/23 06:43:55;;;;;;;;;;;22.70;67.30;;;;;;6125760;23;856;-68
2022/08/23 06:46:22;;;;;;;;;;;22.70;67.10;;;;;;6099122;23;1933;-68
2022/08/23 06:48:48;;;;;;;;;;;22.70;67.20;;;;;;6099600;23;781;-67
2022/08/23 06:51:24;;;;;;;;;;;22.70;67.10;;;;;;6125477;23;1283;-68
2022/08/23 06:53:53;;;;;;;;;;;22.70;67.20;;;;;;6099682;23;797;-67
2022/08/23 06:56:19;;;;;;;;;;;22.70;67.10;;;;;;6099420;23;801;-68
2022/08/23 06:58:45;;;;;;;;;;;22.70;67.00;;;;;;6099773;23;1153;-68
2022/08/23 07:01:10;;;;;;;;;;;22.70;67.10;;;;;;6125345;23;1172;-68
2022/08/23 07:03:36;;;;;;;;;;;22.70;67.10;;;;;;6125904;23;802;-68
2022/08/23 07:06:01;;;;;;;;;;;22.70;67.10;;;;;;6124559;23;1889;-66
2022/08/23 07:08:27;;;;;;;;;;;22.70;67.10;;;;;;6099552;23;825;-66
2022/08/23 07:10:54;;;;;;;;;;;22.70;67.10;;;;;;6125184;23;1259;-67
2022/08/23 07:13:20;;;;;;;;;;;22.70;67.00;;;;;;6099674;23;891;-67
2022/08/23 07:15:45;;;;;;;;;;;22.70;67.10;;;;;;6125390;23;840;-68
2022/08/23 07:18:12;;;;;;;;;;;22.70;67.20;;;;;;6099560;23;920;-68
2022/08/23 07:20:37;;;;;;;;;;;22.70;67.10;;;;;;6099301;23;1295;-66
2022/08/23 07:23:04;;;;;;;;;;;22.70;67.00;;;;;;6075337;23;1189;-68
2022/08/23 07:25:29;;;;;;;;;;;22.70;67.10;;;;;;6124860;23;801;-68
2022/08/23 07:27:55;;;;;;;;;;;22.70;67.20;;;;;;6125046;23;1894;-67
2022/08/23 07:30:20;;;;;;;;;;;22.70;67.00;;;;;;6075755;23;1205;-67
2022/08/23 07:32:46;;;;;;;;;;;22.70;67.10;;;;;;6099154;23;1229;-67
2022/08/23 07:35:11;;;;;;;;;;;22.70;67.20;;;;;;6075820;23;1379;-69
2022/08/23 07:37:37;;;;;;;;;;;22.70;67.20;;;;;;6124711;23;774;-68
2022/08/23 07:40:03;;;;;;;;;;;22.70;67.30;;;;;;6099161;23;1268;-68
2022/08/23 07:42:28;;;;;;;;;;;22.70;67.20;;;;;;6100011;23;1229;-67
2022/08/23 07:44:54;;;;;;;;;;;22.70;67.10;;;;;;6101990;23;786;-68
2022/08/23 07:47:20;;;;;;;;;;;22.70;67.20;;;;;;6126667;23;1889;-68
2022/08/23 07:49:45;;;;;;;;;;;22.70;67.10;;;;;;6101993;23;759;-68
2022/08/23 07:52:11;;;;;;;;;;;22.70;67.10;;;;;;6126787;23;1188;-68
2022/08/23 07:54:36;;;;;;;;;;;22.70;67.20;;;;;;6127594;23;833;-68
2022/08/23 07:57:02;;;;;;;;;;;22.70;67.10;;;;;;6076282;23;1203;-68
2022/08/23 07:59:28;;;;;;;;;;;22.70;67.10;;;;;;6101577;23;863;-68
2022/08/23 08:01:54;;;;;;;;;;;22.70;67.20;;;;;;6100842;23;1282;-68
2022/08/23 08:04:19;;;;;;;;;;;22.70;67.30;;;;;;6077464;23;1291;-66
2022/08/23 08:06:46;;;;;;;;;;;22.70;67.20;;;;;;6076045;23;1931;-68
2022/08/23 08:09:12;;;;;;;;;;;22.70;67.20;;;;;;6101171;23;797;-67
2022/08/23 08:11:39;;;;;;;;;;;22.70;67.30;;;;;;6100783;23;1315;-67
2022/08/23 08:14:06;;;;;;;;;;;22.70;67.30;;;;;;6077318;23;1342;-68
2022/08/23 08:16:33;;;;;;;;;;;22.70;67.30;;;;;;6126727;23;938;-68
2022/08/23 08:18:59;;;;;;;;;;;22.70;67.40;;;;;;6100994;23;912;-68
2022/08/23 08:21:25;;;;;;;;;;;22.70;67.80;;;;;;6100437;23;1212;-68
2022/08/23 08:23:51;;;;;;;;;;;22.70;67.50;;;;;;6127228;23;789;-68
2022/08/23 08:26:16;;;;;;;;;;;22.70;67.40;;;;;;6100239;23;1917;-68
2022/08/23 08:28:42;;;;;;;;;;;22.70;67.50;;;;;;6127252;23;861;-68
2022/08/23 08:31:07;;;;;;;;;;;22.70;67.50;;;;;;6076635;23;1263;-68
2022/08/23 08:33:33;;;;;;;;;;;22.70;67.50;;;;;;6101248;23;758;-68
2022/08/23 08:35:58;;;;;;;;;;;22.70;67.60;;;;;;6126144;23;773;-68
2022/08/23 08:38:24;;;;;;;;;;;22.70;67.60;;;;;;6100695;23;1015;-68
2022/08/23 08:40:52;;;;;;;;;;;22.70;67.70;;;;;;6076380;23;1267;-68
2022/08/23 08:43:37;;;;;;;;;;;22.70;67.70;;;;;;6100011;23;963;-68
2022/08/23 08:46:28;;;;;;;;;;;22.70;67.70;;;;;;6100180;23;1940;-68
2022/08/23 08:48:55;;;;;;;;;;;22.70;67.70;;;;;;6082077;23;1108;-68
2022/08/23 08:51:40;;;;;;;;;;;22.70;67.70;;;;;;6100816;23;1220;-68
2022/08/23 08:54:07;;;;;;;;;;;22.70;67.70;;;;;;6100386;23;884;-66
2022/08/23 08:56:33;;;;;;;;;;;22.70;67.70;;;;;;6100016;23;809;-68
2022/08/23 08:59:19;;;;;;;;;;;22.70;67.70;;;;;;6100813;23;995;-68
2022/08/23 09:01:44;;;;;;;;;;;22.70;67.70;;;;;;6125723;23;1267;-68
2022/08/23 09:04:09;;;;;;;;;;;22.70;67.70;;;;;;6126675;23;833;-68
2022/08/23 09:06:54;;;;;;;;;;;22.70;67.70;;;;;;6099830;23;1931;-68
2022/08/23 09:09:25;;;;;;;;;;;22.70;67.80;;;;;;6126027;23;1012;-68
2022/08/23 09:11:51;;;;;;;;;;;22.70;67.70;;;;;;6126297;23;1271;-68
2022/08/23 09:14:36;;;;;;;;;;;22.70;67.70;;;;;;6126459;23;856;-68
2022/08/23 09:17:03;;;;;;;;;;;22.70;67.70;;;;;;6126354;23;769;-67
2022/08/23 09:19:28;;;;;;;;;;;22.70;67.70;;;;;;6126351;23;923;-67
2022/08/23 09:21:54;;;;;;;;;;;22.70;67.60;;;;;;6075635;23;1270;-67
2022/08/23 09:24:19;;;;;;;;;;;22.70;67.60;;;;;;6126382;23;777;-67
2022/08/23 09:26:45;;;;;;;;;;;22.70;67.60;;;;;;6125733;23;1897;-67
2022/08/23 09:29:16;;;;;;;;;;;22.80;67.60;;;;;;6100246;23;877;-67
2022/08/23 09:31:43;;;;;;;;;;;22.70;67.50;;;;;;6126108;23;1259;-67
2022/08/23 09:34:10;;;;;;;;;;;22.70;67.50;;;;;;6100683;23;950;-67
2022/08/23 09:36:36;;;;;;;;;;;22.70;67.40;;;;;;6100006;23;805;-67
2022/08/23 09:39:01;;;;;;;;;;;22.80;67.50;;;;;;6076085;23;1039;-67
2022/08/23 09:41:31;;;;;;;;;;;22.70;67.30;;;;;;6126307;23;1208;-67
2022/08/23 09:44:00;;;;;;;;;;;22.80;67.50;;;;;;6100116;23;840;-67
2022/08/23 09:46:32;;;;;;;;;;;22.80;67.50;;;;;;6100522;23;1920;-67
2022/08/23 09:48:59;;;;;;;;;;;22.70;67.30;;;;;;6126383;23;831;-67
2022/08/23 09:51:25;;;;;;;;;;;22.70;67.40;;;;;;6099873;23;1339;-67
2022/08/23 09:54:05;;;;;;;;;;;22.70;67.40;;;;;;6126219;23;892;-67
2022/08/23 09:56:33;;;;;;;;;;;22.70;67.30;;;;;;6125373;23;987;-67
2022/08/23 09:58:58;;;;;;;;;;;22.80;67.40;;;;;;6099733;23;919;-67
2022/08/23 10:01:28;;;;;;;;;;;22.80;67.50;;;;;;6099635;23;1209;-67
2022/08/23 10:04:13;;;;;;;;;;;22.70;67.30;;;;;;6100338;23;713;-67
2022/08/23 10:06:40;;;;;;;;;;;22.70;67.30;;;;;;6099213;23;1893;-67
2022/08/23 10:09:06;;;;;;;;;;;22.80;67.40;;;;;;6100599;23;877;-67
2022/08/23 10:11:34;;;;;;;;;;;22.80;67.40;;;;;;6099818;23;1212;-67
2022/08/23 10:13:59;;;;;;;;;;;22.70;67.30;;;;;;6096437;23;1899;-70
2022/08/23 10:16:25;;;;;;;;;;;22.80;67.10;;;;;;6099704;23;847;-70
2022/08/23 10:18:53;;;;;;;;;;;22.80;67.00;;;;;;6126063;23;839;-70
2022/08/23 10:21:37;;;;;;;;;;;22.80;67.00;;;;;;6125928;23;836;-70
2022/08/23 10:24:19;;;;;;;;;;;22.80;67.10;;;;;;6099754;23;1425;-70
2022/08/23 10:26:59;;;;;;;;;;;22.80;67.00;;;;;;6099248;23;1930;-70
2022/08/23 10:29:36;;;;;;;;;;;22.80;66.80;;;;;;6100164;23;910;-70
2022/08/23 10:32:07;;;;;;;;;;;22.80;66.90;;;;;;6101458;23;789;-70
2022/08/23 10:34:33;;;;;;;;;;;22.80;66.60;;;;;;6125516;23;1235;-70
2022/08/23 10:37:08;;;;;;;;;;;22.80;66.20;;;;;;6124787;23;982;-70
2022/08/23 10:39:33;;;;;;;;;;;22.80;66.30;;;;;;6099797;23;1014;-70
2022/08/23 10:42:03;;;;;;;;;;;22.80;66.40;;;;;;6099991;23;728;-70
2022/08/23 10:44:34;;;;;;;;;;;22.80;66.30;;;;;;6099793;23;1200;-70
2022/08/23 10:46:59;;;;;;;;;;;22.90;66.50;;;;;;6125035;23;1885;-71
2022/08/23 10:49:25;;;;;;;;;;;22.90;66.60;;;;;;6099297;23;1211;-70
2022/08/23 10:51:50;;;;;;;;;;;22.90;66.80;;;;;;6099769;23;817;-70
2022/08/23 10:54:22;;;;;;;;;;;22.90;66.80;;;;;;6099884;23;1172;-70
2022/08/23 10:56:48;;;;;;;;;;;22.90;66.90;;;;;;6100584;23;869;-70
2022/08/23 10:59:16;;;;;;;;;;;22.90;66.80;;;;;;6100190;23;921;-70
2022/08/23 11:01:53;;;;;;;;;;;22.90;66.80;;;;;;6099959;23;1006;-70
2022/08/23 11:04:21;;;;;;;;;;;22.90;67.20;;;;;;6125309;23;1252;-71
2022/08/23 11:06:51;;;;;;;;;;;22.90;66.70;;;;;;6098700;23;1882;-70
2022/08/23 11:09:17;;;;;;;;;;;22.90;66.30;;;;;;6099573;23;844;-70
2022/08/23 11:11:46;;;;;;;;;;;22.90;66.40;;;;;;6125594;23;836;-70
2022/08/23 11:14:25;;;;;;;;;;;22.90;66.30;;;;;;6124365;23;1204;-70
2022/08/23 11:16:53;;;;;;;;;;;22.90;66.50;;;;;;6099857;23;852;-70
2022/08/23 11:19:39;;;;;;;;;;;22.90;66.30;;;;;;6101540;23;1393;-71
2022/08/23 11:22:15;;;;;;;;;;;22.90;66.10;;;;;;6128541;23;1273;-71
2022/08/23 11:24:57;;;;;;;;;;;22.90;66.30;;;;;;6101486;23;1218;-70
2022/08/23 11:27:30;;;;;;;;;;;22.90;66.50;;;;;;6102154;23;1900;-70
2022/08/23 11:29:55;;;;;;;;;;;22.90;66.30;;;;;;6103000;23;852;-71
2022/08/23 11:32:23;;;;;;;;;;;22.90;66.20;;;;;;6102905;23;840;-70
2022/08/23 11:34:51;;;;;;;;;;;22.90;66.30;;;;;;6129543;23;1259;-70
2022/08/23 11:37:19;;;;;;;;;;;22.90;66.20;;;;;;6102853;23;832;-70
2022/08/23 11:39:57;;;;;;;;;;;22.90;66.00;;;;;;6129437;23;1117;-70
2022/08/23 11:42:42;;;;;;;;;;;22.90;66.00;;;;;;6130407;23;920;-70
2022/08/23 11:45:26;;;;;;;;;;;22.90;65.60;;;;;;6128035;23;1102;-70
2022/08/23 11:48:11;;;;;;;;;;;22.90;65.80;;;;;;6126241;23;1882;-70
2022/08/23 11:50:51;;;;;;;;;;;22.90;65.80;;;;;;6128698;23;808;-70
2022/08/23 11:53:29;;;;;;;;;;;22.90;65.30;;;;;;6078978;23;1213;-69
2022/08/23 11:56:00;;;;;;;;;;;22.90;65.30;;;;;;6128077;23;801;-70
2022/08/23 11:58:41;;;;;;;;;;;22.90;65.40;;;;;;6128583;23;797;-70
2022/08/23 12:01:09;;;;;;;;;;;22.90;65.20;;;;;;6129281;23;765;-71
2022/08/23 12:03:42;;;;;;;;;;;23.00;65.30;;;;;;6102702;23;1153;-70
2022/08/23 12:06:27;;;;;;;;;;;22.90;65.00;;;;;;6103126;23;1901;-67
2022/08/23 12:09:00;;;;;;;;;;;22.90;65.40;;;;;;6102948;23;1062;-69
2022/08/23 12:11:25;;;;;;;;;;;22.90;65.50;;;;;;6103392;23;820;-66
2022/08/23 12:14:01;;;;;;;;;;;22.90;65.30;;;;;;6123979;23;1212;-66
2022/08/23 12:16:28;;;;;;;;;;;22.90;65.30;;;;;;6102291;23;1384;-67
2022/08/23 12:18:56;;;;;;;;;;;23.00;65.20;;;;;;6103065;23;956;-67
2022/08/23 12:21:41;;;;;;;;;;;22.90;65.10;;;;;;6103019;23;824;-66
2022/08/23 12:24:21;;;;;;;;;;;23.00;65.20;;;;;;6128902;23;1208;-66
2022/08/23 12:26:50;;;;;;;;;;;23.00;65.30;;;;;;6102339;23;1893;-66
2022/08/23 12:29:24;;;;;;;;;;;23.00;65.10;;;;;;6101646;23;845;-66
2022/08/23 12:31:50;;;;;;;;;;;23.00;65.20;;;;;;6101206;23;831;-66
2022/08/23 12:34:24;;;;;;;;;;;23.00;65.80;;;;;;6127131;23;1239;-66
2022/08/23 12:37:09;;;;;;;;;;;23.00;64.80;;;;;;6100683;23;1093;-66
2022/08/23 12:39:49;;;;;;;;;;;23.00;64.60;;;;;;6126760;23;859;-66
2022/08/23 12:42:16;;;;;;;;;;;23.00;64.80;;;;;;6127221;23;812;-66
2022/08/23 12:44:42;;;;;;;;;;;23.00;64.60;;;;;;6100880;23;1212;-66
2022/08/23 12:47:09;;;;;;;;;;;23.00;64.80;;;;;;6100328;23;1928;-69
2022/08/23 12:49:34;;;;;;;;;;;23.00;64.70;;;;;;6126348;23;848;-69
2022/08/23 12:52:01;;;;;;;;;;;23.00;64.50;;;;;;6101646;23;851;-68
2022/08/23 12:54:43;;;;;;;;;;;23.00;64.30;;;;;;6100005;23;1232;-68
2022/08/23 12:57:11;;;;;;;;;;;23.00;64.10;;;;;;6100187;23;868;-68
2022/08/23 12:59:41;;;;;;;;;;;23.00;63.90;;;;;;6099713;23;1267;-68
2022/08/23 13:02:32;;;;;;;;;;;23.10;63.60;;;;;;6125933;23;785;-68
2022/08/23 13:05:01;;;;;;;;;;;23.10;63.20;;;;;;6120724;23;1000;-68
2022/08/23 13:07:27;;;;;;;;;;;23.10;63.40;;;;;;6100484;23;1885;-68
2022/08/23 13:09:52;;;;;;;;;;;23.10;63.10;;;;;;6101046;23;841;-68
2022/08/23 13:12:18;;;;;;;;;;;23.10;63.00;;;;;;6127035;23;810;-68
2022/08/23 13:14:45;;;;;;;;;;;23.10;63.10;;;;;;6126526;23;1164;-68
2022/08/23 13:17:11;;;;;;;;;;;23.10;63.00;;;;;;6100203;23;777;-68
2022/08/23 13:19:37;;;;;;;;;;;23.10;63.10;;;;;;6127294;23;900;-68
2022/08/23 13:22:21;;;;;;;;;;;23.10;63.50;;;;;;6101517;23;931;-67
2022/08/23 13:25:05;;;;;;;;;;;23.10;63.40;;;;;;6127000;23;1280;-67
2022/08/23 13:27:32;;;;;;;;;;;23.10;63.30;;;;;;6100577;23;1897;-68
2022/08/23 13:29:58;;;;;;;;;;;23.10;63.20;;;;;;6126729;23;1010;-68
2022/08/23 13:32:28;;;;;;;;;;;23.10;63.00;;;;;;6099965;23;848;-68
2022/08/23 13:34:55;;;;;;;;;;;23.10;63.40;;;;;;6126327;23;837;-68
2022/08/23 13:37:30;;;;;;;;;;;23.10;62.80;;;;;;6125654;23;860;-67
2022/08/23 13:39:56;;;;;;;;;;;23.10;62.90;;;;;;6100203;23;872;-68
2022/08/23 13:42:30;;;;;;;;;;;23.10;62.80;;;;;;6100867;23;884;-67
2022/08/23 13:44:56;;;;;;;;;;;23.10;62.70;;;;;;6100391;23;832;-67
2022/08/23 13:47:22;;;;;;;;;;;23.10;62.80;;;;;;6099661;23;1922;-67
2022/08/23 13:49:48;;;;;;;;;;;23.10;62.30;;;;;;6100779;23;860;-68
2022/08/23 13:52:13;;;;;;;;;;;23.10;62.20;;;;;;6076218;23;1286;-68
2022/08/23 13:54:39;;;;;;;;;;;23.10;62.00;;;;;;6125665;23;1311;-67
2022/08/23 13:57:05;;;;;;;;;;;23.10;61.50;;;;;;6126115;23;777;-68
2022/08/23 13:59:32;;;;;;;;;;;23.10;61.30;;;;;;6100975;23;817;-68
2022/08/23 14:01:58;;;;;;;;;;;23.10;61.20;;;;;;6127186;23;1053;-68
2022/08/23 14:04:24;;;;;;;;;;;23.10;61.20;;;;;;6100973;23;1132;-68
2022/08/23 14:06:49;;;;;;;;;;;23.10;61.20;;;;;;6126583;23;1901;-68
2022/08/23 14:09:15;;;;;;;;;;;23.10;61.00;;;;;;6126898;23;1027;-67
2022/08/23 14:11:40;;;;;;;;;;;23.10;61.20;;;;;;6076956;23;1172;-67
2022/08/23 14:14:06;;;;;;;;;;;23.10;61.20;;;;;;6101256;23;1168;-69
2022/08/23 14:16:36;;;;;;;;;;;23.10;60.90;;;;;;6100175;23;820;-68
2022/08/23 14:19:02;;;;;;;;;;;23.10;60.70;;;;;;6101761;23;860;-67
2022/08/23 14:21:28;;;;;;;;;;;23.20;61.00;;;;;;6126722;23;927;-67
2022/08/23 14:23:53;;;;;;;;;;;23.10;61.20;;;;;;6125926;23;1259;-67
2022/08/23 14:26:20;;;;;;;;;;;23.10;61.20;;;;;;6126339;23;1901;-68
2022/08/23 14:28:46;;;;;;;;;;;23.10;61.30;;;;;;6125770;23;856;-67
2022/08/23 14:31:11;;;;;;;;;;;23.10;61.40;;;;;;6125968;23;1014;-67
2022/08/23 14:33:36;;;;;;;;;;;23.20;61.20;;;;;;6125050;23;1227;-68
2022/08/23 14:36:02;;;;;;;;;;;23.20;61.00;;;;;;6125210;23;935;-68
2022/08/23 14:38:28;;;;;;;;;;;23.20;61.00;;;;;;6125279;23;903;-67
2022/08/23 14:40:56;;;;;;;;;;;23.20;61.60;;;;;;6125865;23;1026;-67
2022/08/23 14:43:21;;;;;;;;;;;23.20;62.00;;;;;;6099254;23;1193;-69
2022/08/23 14:45:47;;;;;;;;;;;23.10;61.90;;;;;;6099251;23;1889;-69